createdAt,value
2022-10-13T00:00:53.376Z,97490.19
2022-10-13T00:01:55.281Z,97496.44
2022-10-13T00:02:59.718Z,97499.47
2022-10-13T00:04:01.482Z,97499.03
2022-10-13T00:05:03.392Z,97496.00
2022-10-13T00:06:06.156Z,97495.63
2022-10-13T00:07:08.063Z,97497.63
2022-10-13T00:08:10.227Z,97497.88
2022-10-13T00:09:12.156Z,97497.44
2022-10-13T00:10:13.986Z,97494.44
2022-10-13T00:11:17.807Z,97495.84
2022-10-13T00:12:20.037Z,97500.66
2022-10-13T00:13:22.177Z,97491.03
2022-10-13T00:14:23.947Z,97500.47
2022-10-13T00:15:26.436Z,97495.25
2022-10-13T00:16:29.147Z,97498.88
2022-10-13T00:17:31.075Z,97498.88
2022-10-13T00:18:32.847Z,97496.66
2022-10-13T00:19:34.747Z,97493.03
2022-10-13T00:20:36.606Z,97498.06
2022-10-13T00:21:38.514Z,97492.63
2022-10-13T00:22:40.477Z,97487.81
2022-10-13T00:23:42.643Z,97495.06
2022-10-13T00:24:44.636Z,97483.16
2022-10-13T00:25:48.712Z,97486.38
2022-10-13T00:26:50.856Z,97486.38
2022-10-13T00:27:52.811Z,97486.16
2022-10-13T00:28:55.242Z,97478.31
2022-10-13T00:29:57.320Z,97488.59
2022-10-13T00:30:59.706Z,97480.56
2022-10-13T00:32:01.459Z,97478.91
2022-10-13T00:33:03.968Z,97480.13
2022-10-13T00:34:05.736Z,97486.78
2022-10-13T00:35:07.738Z,97482.75
2022-10-13T00:36:09.524Z,97487.41
2022-10-13T00:37:11.307Z,97483.16
2022-10-13T00:38:13.726Z,97483.16
2022-10-13T00:39:15.469Z,97479.53
2022-10-13T00:40:17.342Z,97480.34
2022-10-13T00:41:19.930Z,97479.31
2022-10-13T00:42:23.578Z,97480.16
2022-10-13T00:43:47.854Z,97479.13
2022-10-13T00:45:04.087Z,97482.53
2022-10-13T00:46:05.846Z,97475.72
2022-10-13T00:47:07.839Z,97472.91
2022-10-13T00:48:09.813Z,97477.91
2022-10-13T00:49:13.127Z,97473.69
2022-10-13T00:50:16.888Z,97474.06
2022-10-13T00:51:21.490Z,97473.28
2022-10-13T00:52:24.192Z,97470.66
2022-10-13T00:53:29.774Z,97474.09
2022-10-13T00:54:31.658Z,97483.34
2022-10-13T00:55:35.471Z,97473.28
2022-10-13T00:56:38.351Z,97476.09
2022-10-13T00:57:44.246Z,97470.84
2022-10-13T00:58:47.668Z,97476.69
2022-10-13T00:59:49.617Z,97479.91
2022-10-13T01:00:53.085Z,97478.94
2022-10-13T01:01:55.751Z,97478.09
2022-10-13T01:02:57.908Z,97473.69
2022-10-13T01:03:59.784Z,97480.34
2022-10-13T01:05:02.268Z,97485.75
2022-10-13T01:06:05.419Z,97473.66
2022-10-13T01:07:07.554Z,97477.28
2022-10-13T01:08:10.994Z,97474.47
2022-10-13T01:09:12.907Z,97477.28
2022-10-13T01:10:24.422Z,97475.47
2022-10-13T01:11:26.124Z,97479.09
2022-10-13T01:12:46.765Z,97481.72
2022-10-13T01:13:49.152Z,97476.28
2022-10-13T01:15:07.982Z,97469.44
2022-10-13T01:16:14.212Z,97475.91
2022-10-13T01:17:33.798Z,97477.88
2022-10-13T01:18:42.296Z,97474.88
2022-10-13T01:19:59.466Z,97476.09
2022-10-13T01:21:08.777Z,97478.09
2022-10-13T01:22:20.446Z,97477.72
2022-10-13T01:23:22.527Z,97474.69
2022-10-13T01:24:36.446Z,97472.47
2022-10-13T01:25:57.066Z,97467.84
2022-10-13T01:27:09.196Z,97469.25
2022-10-13T01:28:29.814Z,97468.06
2022-10-13T01:29:49.979Z,97468.84
2022-10-13T01:31:07.463Z,97463.22
2022-10-13T01:32:09.240Z,97473.69
2022-10-13T01:33:17.995Z,97468.44
2022-10-13T01:34:25.952Z,97466.63
2022-10-13T01:35:30.748Z,97466.84
2022-10-13T01:36:51.469Z,97458.78
2022-10-13T01:38:03.610Z,97460.78
2022-10-13T01:39:14.536Z,97466.81
2022-10-13T01:40:39.648Z,97459.81
2022-10-13T01:41:47.084Z,97464.63
2022-10-13T01:42:54.905Z,97458.97
2022-10-13T01:44:01.084Z,97464.63
2022-10-13T01:45:03.716Z,97465.03
2022-10-13T01:46:16.531Z,97465.44
2022-10-13T01:47:19.488Z,97464.78
2022-10-13T01:48:21.689Z,97459.56
2022-10-13T01:49:28.812Z,97458.97
2022-10-13T01:50:31.739Z,97460.38
2022-10-13T01:51:34.187Z,97463.41
2022-10-13T01:52:37.633Z,97466.03
2022-10-13T01:53:39.839Z,97458.97
2022-10-13T01:54:41.747Z,97451.91
2022-10-13T01:55:57.039Z,97463.00
2022-10-13T01:56:58.802Z,97460.38
2022-10-13T01:58:00.693Z,97450.53
2022-10-13T01:59:05.221Z,97457.16
2022-10-13T02:00:09.521Z,97455.94
2022-10-13T02:01:31.564Z,97460.16
2022-10-13T02:02:51.979Z,97450.31
2022-10-13T02:04:01.480Z,97456.34
2022-10-13T02:05:06.313Z,97456.34
2022-10-13T02:06:20.364Z,97452.09
2022-10-13T02:07:42.031Z,97445.47
2022-10-13T02:08:46.454Z,97449.28
2022-10-13T02:09:58.295Z,97450.09
2022-10-13T02:11:11.295Z,97451.09
2022-10-13T02:12:17.510Z,97446.09
2022-10-13T02:13:22.897Z,97445.47
2022-10-13T02:14:27.032Z,97444.28
2022-10-13T02:15:41.350Z,97444.06
2022-10-13T02:16:44.669Z,97443.09
2022-10-13T02:17:46.494Z,97443.09
2022-10-13T02:18:48.431Z,97443.28
2022-10-13T02:19:50.897Z,97438.84
2022-10-13T02:20:53.453Z,97445.47
2022-10-13T02:21:56.612Z,97438.44
2022-10-13T02:23:01.676Z,97441.69
2022-10-13T02:24:04.648Z,97448.31
2022-10-13T02:25:06.906Z,97441.69
2022-10-13T02:26:09.486Z,97444.50
2022-10-13T02:27:11.351Z,97443.47
2022-10-13T02:28:13.806Z,97438.22
2022-10-13T02:29:16.918Z,97430.19
2022-10-13T02:30:23.086Z,97443.88
2022-10-13T02:31:25.407Z,97440.28
2022-10-13T02:32:27.353Z,97430.41
2022-10-13T02:33:29.349Z,97436.25
2022-10-13T02:34:31.425Z,97439.25
2022-10-13T02:35:33.871Z,97436.63
2022-10-13T02:36:38.078Z,97436.81
2022-10-13T02:37:39.930Z,97435.03
2022-10-13T02:38:41.792Z,97440.66
2022-10-13T02:39:43.699Z,97438.66
2022-10-13T02:40:45.492Z,97438.63
2022-10-13T02:41:47.319Z,97439.84
2022-10-13T02:42:49.089Z,97437.63
2022-10-13T02:43:51.007Z,97439.84
2022-10-13T02:44:52.956Z,97437.41
2022-10-13T02:45:54.801Z,97435.41
2022-10-13T02:46:56.745Z,97439.66
2022-10-13T02:47:58.716Z,97441.06
2022-10-13T02:49:00.453Z,97432.78
2022-10-13T02:50:02.405Z,97433.38
2022-10-13T02:51:04.262Z,97434.22
2022-10-13T02:52:06.084Z,97436.63
2022-10-13T02:53:07.873Z,97430.56
2022-10-13T02:54:09.715Z,97431.00
2022-10-13T02:55:11.587Z,97430.78
2022-10-13T02:56:13.783Z,97431.78
2022-10-13T02:57:15.573Z,97428.97
2022-10-13T02:58:17.402Z,97431.41
2022-10-13T02:59:19.172Z,97425.75
2022-10-13T03:00:20.992Z,97436.81
2022-10-13T03:01:22.749Z,97428.19
2022-10-13T03:02:26.201Z,97426.56
2022-10-13T03:03:28.018Z,97422.34
2022-10-13T03:04:29.867Z,97426.78
2022-10-13T03:05:31.771Z,97422.53
2022-10-13T03:06:33.596Z,97426.78
2022-10-13T03:07:35.381Z,97426.97
2022-10-13T03:08:38.607Z,97428.56
2022-10-13T03:09:40.489Z,97430.00
2022-10-13T03:10:42.344Z,97432.19
2022-10-13T03:11:44.092Z,97430.78
2022-10-13T03:12:45.894Z,97425.75
2022-10-13T03:13:47.714Z,97427.56
2022-10-13T03:14:49.672Z,97433.00
2022-10-13T03:15:51.600Z,97431.19
2022-10-13T03:16:53.421Z,97434.63
2022-10-13T03:17:55.251Z,97428.38
2022-10-13T03:18:57.113Z,97430.38
2022-10-13T03:19:58.857Z,97428.16
2022-10-13T03:21:02.213Z,97430.16
2022-10-13T03:22:03.997Z,97431.00
2022-10-13T03:23:07.284Z,97431.59
2022-10-13T03:24:09.204Z,97432.19
2022-10-13T03:25:11.031Z,97422.91
2022-10-13T03:26:12.988Z,97427.34
2022-10-13T03:27:16.001Z,97428.16
2022-10-13T03:28:17.865Z,97427.16
2022-10-13T03:29:19.856Z,97428.78
2022-10-13T03:30:21.746Z,97425.16
2022-10-13T03:31:23.733Z,97428.78
2022-10-13T03:32:25.498Z,97431.00
2022-10-13T03:33:27.208Z,97430.38
2022-10-13T03:34:28.975Z,97439.03
2022-10-13T03:35:30.851Z,97431.19
2022-10-13T03:36:32.651Z,97439.22
2022-10-13T03:37:34.462Z,97428.97
2022-10-13T03:38:37.235Z,97433.38
2022-10-13T03:39:39.038Z,97433.38
2022-10-13T03:40:40.817Z,97430.59
2022-10-13T03:41:42.669Z,97435.41
2022-10-13T03:42:44.427Z,97436.00
2022-10-13T03:43:46.367Z,97434.41
2022-10-13T03:44:52.355Z,97434.59
2022-10-13T03:45:57.986Z,97439.03
2022-10-13T03:46:59.826Z,97437.41
2022-10-13T03:48:01.695Z,97434.78
2022-10-13T03:49:03.540Z,97438.44
2022-10-13T03:50:05.727Z,97434.78
2022-10-13T03:51:11.130Z,97439.44
2022-10-13T03:52:13.017Z,97439.44
2022-10-13T03:53:14.743Z,97434.78
2022-10-13T03:54:16.666Z,97444.88
2022-10-13T03:55:18.490Z,97446.88
2022-10-13T03:56:22.136Z,97442.25
2022-10-13T03:57:24.036Z,97448.06
2022-10-13T03:58:26.267Z,97454.75
2022-10-13T03:59:34.160Z,97452.91
2022-10-13T04:00:38.305Z,97441.44
2022-10-13T04:01:40.530Z,97451.91
2022-10-13T04:02:42.439Z,97449.28
2022-10-13T04:03:44.248Z,97447.50
2022-10-13T04:04:46.016Z,97446.47
2022-10-13T04:05:48.189Z,97442.66
2022-10-13T04:06:50.169Z,97446.69
2022-10-13T04:07:52.022Z,97447.31
2022-10-13T04:08:54.055Z,97447.09
2022-10-13T04:09:56.157Z,97453.94
2022-10-13T04:11:06.422Z,97450.09
2022-10-13T04:12:08.255Z,97451.75
2022-10-13T04:13:10.079Z,97448.50
2022-10-13T04:14:11.808Z,97449.31
2022-10-13T04:15:13.572Z,97450.94
2022-10-13T04:16:16.797Z,97448.31
2022-10-13T04:17:18.809Z,97449.91
2022-10-13T04:18:20.647Z,97448.69
2022-10-13T04:19:22.494Z,97449.13
2022-10-13T04:20:24.225Z,97451.13
2022-10-13T04:21:26.064Z,97450.09
2022-10-13T04:22:27.972Z,97443.88
2022-10-13T04:23:29.831Z,97458.78
2022-10-13T04:24:31.635Z,97450.53
2022-10-13T04:25:37.358Z,97451.31
2022-10-13T04:26:39.628Z,97448.72
2022-10-13T04:27:41.494Z,97454.53
2022-10-13T04:28:43.731Z,97453.56
2022-10-13T04:29:45.537Z,97448.94
2022-10-13T04:30:49.411Z,97453.94
2022-10-13T04:31:51.424Z,97450.31
2022-10-13T04:32:53.288Z,97447.72
2022-10-13T04:33:55.890Z,97444.28
2022-10-13T04:34:57.724Z,97439.84
2022-10-13T04:35:59.508Z,97448.50
2022-10-13T04:37:01.259Z,97445.28
2022-10-13T04:38:03.015Z,97444.69
2022-10-13T04:39:04.897Z,97447.31
2022-10-13T04:40:06.838Z,97447.91
2022-10-13T04:41:09.326Z,97441.88
2022-10-13T04:42:11.103Z,97448.69
2022-10-13T04:43:12.879Z,97445.09
2022-10-13T04:44:14.821Z,97444.06
2022-10-13T04:45:17.090Z,97449.53
2022-10-13T04:46:20.822Z,97448.94
2022-10-13T04:47:22.764Z,97441.88
2022-10-13T04:48:24.516Z,97443.66
2022-10-13T04:49:26.722Z,97446.66
2022-10-13T04:50:28.837Z,97443.84
2022-10-13T04:51:30.694Z,97435.59
2022-10-13T04:52:32.743Z,97444.84
2022-10-13T04:53:34.714Z,97439.44
2022-10-13T04:54:36.481Z,97434.59
2022-10-13T04:55:38.256Z,97435.22
2022-10-13T04:56:40.027Z,97437.63
2022-10-13T04:57:41.783Z,97433.19
2022-10-13T04:58:44.554Z,97433.00
2022-10-13T04:59:46.898Z,97441.84
2022-10-13T05:00:48.898Z,97440.63
2022-10-13T05:01:50.719Z,97439.22
2022-10-13T05:02:52.587Z,97440.63
2022-10-13T05:03:55.702Z,97444.88
2022-10-13T05:04:57.518Z,97443.66
2022-10-13T05:05:59.501Z,97445.88
2022-10-13T05:07:18.226Z,97445.69
2022-10-13T05:08:20.452Z,97438.63
2022-10-13T05:09:22.832Z,97445.47
2022-10-13T05:10:24.607Z,97449.88
2022-10-13T05:11:27.160Z,97447.47
2022-10-13T05:12:29.074Z,97447.09
2022-10-13T05:13:30.925Z,97444.66
2022-10-13T05:14:33.658Z,97442.03
2022-10-13T05:15:35.439Z,97441.84
2022-10-13T05:16:37.409Z,97447.47
2022-10-13T05:17:39.357Z,97447.28
2022-10-13T05:18:41.332Z,97443.44
2022-10-13T05:19:43.196Z,97445.03
2022-10-13T05:20:44.977Z,97442.22
2022-10-13T05:21:46.803Z,97439.41
2022-10-13T05:22:48.803Z,97450.50
2022-10-13T05:23:54.558Z,97448.47
2022-10-13T05:24:56.239Z,97445.25
2022-10-13T05:26:00.944Z,97444.44
2022-10-13T05:27:07.095Z,97445.25
2022-10-13T05:28:09.080Z,97440.81
2022-10-13T05:29:10.910Z,97443.03
2022-10-13T05:30:12.881Z,97438.63
2022-10-13T05:31:18.254Z,97444.66
2022-10-13T05:32:20.248Z,97437.59
2022-10-13T05:33:22.257Z,97445.66
2022-10-13T05:34:24.087Z,97442.66
2022-10-13T05:35:26.248Z,97439.19
2022-10-13T05:36:31.002Z,97441.22
2022-10-13T05:37:32.758Z,97442.66
2022-10-13T05:38:34.736Z,97445.03
2022-10-13T05:39:36.507Z,97443.44
2022-10-13T05:40:38.277Z,97453.91
2022-10-13T05:41:40.781Z,97440.81
2022-10-13T05:42:42.590Z,97445.88
2022-10-13T05:43:44.456Z,97445.44
2022-10-13T05:44:46.292Z,97442.22
2022-10-13T05:45:48.200Z,97447.47
2022-10-13T05:46:50.088Z,97445.22
2022-10-13T05:47:52.052Z,97451.47
2022-10-13T05:48:53.962Z,97443.22
2022-10-13T05:49:55.982Z,97453.50
2022-10-13T05:51:00.758Z,97446.44
2022-10-13T05:52:04.192Z,97448.88
2022-10-13T05:53:06.009Z,97447.47
2022-10-13T05:54:10.581Z,97446.84
2022-10-13T05:55:15.307Z,97445.84
2022-10-13T05:56:20.083Z,97441.63
2022-10-13T05:57:24.567Z,97447.47
2022-10-13T05:58:26.400Z,97446.25
2022-10-13T05:59:29.883Z,97443.03
2022-10-13T06:00:31.693Z,97449.66
2022-10-13T06:01:37.375Z,97445.03
2022-10-13T06:02:58.166Z,97444.06
2022-10-13T06:04:03.168Z,97442.84
2022-10-13T06:05:07.108Z,97443.44
2022-10-13T06:06:09.450Z,97444.66
2022-10-13T06:07:11.848Z,97445.88
2022-10-13T06:08:17.101Z,97442.22
2022-10-13T06:09:18.935Z,97444.25
2022-10-13T06:10:20.865Z,97442.22
2022-10-13T06:11:22.697Z,97448.06
2022-10-13T06:12:24.659Z,97451.91
2022-10-13T06:13:26.511Z,97443.84
2022-10-13T06:14:28.335Z,97442.66
2022-10-13T06:15:30.334Z,97444.88
2022-10-13T06:16:32.166Z,97446.28
2022-10-13T06:17:36.213Z,97443.66
2022-10-13T06:18:38.001Z,97440.25
2022-10-13T06:19:39.744Z,97449.09
2022-10-13T06:20:41.702Z,97444.50
2022-10-13T06:21:43.592Z,97442.06
2022-10-13T06:22:46.754Z,97444.50
2022-10-13T06:23:48.605Z,97435.22
2022-10-13T06:24:50.401Z,97443.25
2022-10-13T06:25:53.094Z,97439.03
2022-10-13T06:26:54.942Z,97443.66
2022-10-13T06:27:57.260Z,97441.88
2022-10-13T06:28:59.925Z,97445.09
2022-10-13T06:30:01.905Z,97444.28
2022-10-13T06:31:05.231Z,97449.50
2022-10-13T06:32:07.243Z,97443.47
2022-10-13T06:33:10.196Z,97445.69
2022-10-13T06:34:12.833Z,97447.28
2022-10-13T06:35:14.841Z,97442.25
2022-10-13T06:36:16.643Z,97443.44
2022-10-13T06:37:20.345Z,97443.25
2022-10-13T06:38:25.202Z,97440.41
2022-10-13T06:39:27.032Z,97449.09
2022-10-13T06:40:28.868Z,97453.72
2022-10-13T06:41:30.767Z,97455.13
2022-10-13T06:42:34.776Z,97448.06
2022-10-13T06:43:40.382Z,97444.47
2022-10-13T06:44:42.587Z,97446.28
2022-10-13T06:45:44.383Z,97441.06
2022-10-13T06:46:46.192Z,97445.25
2022-10-13T06:47:48.309Z,97443.84
2022-10-13T06:48:51.288Z,97441.66
2022-10-13T06:49:53.008Z,97440.47
2022-10-13T06:50:54.834Z,97442.88
2022-10-13T06:51:56.605Z,97442.25
2022-10-13T06:52:58.456Z,97441.88
2022-10-13T06:54:00.281Z,97443.25
2022-10-13T06:55:02.182Z,97440.25
2022-10-13T06:56:05.908Z,97441.88
2022-10-13T06:57:07.702Z,97450.72
2022-10-13T06:58:10.199Z,97445.09
2022-10-13T06:59:12.271Z,97440.25
2022-10-13T07:00:14.329Z,97449.72
2022-10-13T07:01:16.240Z,97447.09
2022-10-13T07:02:18.425Z,97449.50
2022-10-13T07:03:21.171Z,97446.88
2022-10-13T07:04:23.496Z,97448.50
2022-10-13T07:05:25.334Z,97453.13
2022-10-13T07:06:27.197Z,97447.50
2022-10-13T07:07:29.021Z,97449.91
2022-10-13T07:08:31.446Z,97445.09
2022-10-13T07:09:33.301Z,97450.13
2022-10-13T07:10:35.078Z,97440.25
2022-10-13T07:11:36.976Z,97447.09
2022-10-13T07:12:38.867Z,97447.91
2022-10-13T07:13:45.324Z,97440.06
2022-10-13T07:14:49.328Z,97442.47
2022-10-13T07:15:51.110Z,97441.66
2022-10-13T07:16:52.981Z,97445.91
2022-10-13T07:17:55.882Z,97442.25
2022-10-13T07:18:57.681Z,97442.25
2022-10-13T07:20:01.345Z,97445.69
2022-10-13T07:21:07.084Z,97445.69
2022-10-13T07:22:09.048Z,97441.88
2022-10-13T07:23:11.002Z,97444.88
2022-10-13T07:24:12.792Z,97450.53
2022-10-13T07:25:14.789Z,97445.50
2022-10-13T07:26:16.556Z,97440.44
2022-10-13T07:27:18.470Z,97444.25
2022-10-13T07:28:20.925Z,97441.84
2022-10-13T07:29:22.812Z,97441.22
2022-10-13T07:30:24.733Z,97441.63
2022-10-13T07:31:27.098Z,97431.75
2022-10-13T07:32:28.861Z,97445.84
2022-10-13T07:33:30.695Z,97443.63
2022-10-13T07:34:32.470Z,97435.16
2022-10-13T07:35:34.506Z,97434.56
2022-10-13T07:36:36.393Z,97441.19
2022-10-13T07:37:38.517Z,97432.75
2022-10-13T07:38:41.031Z,97439.19
2022-10-13T07:39:42.763Z,97438.75
2022-10-13T07:40:44.729Z,97434.09
2022-10-13T07:41:50.863Z,97430.06
2022-10-13T07:42:53.127Z,97429.66
2022-10-13T07:43:55.750Z,97429.22
2022-10-13T07:44:57.476Z,97434.47
2022-10-13T07:46:00.073Z,97430.22
2022-10-13T07:47:01.922Z,97428.41
2022-10-13T07:48:03.861Z,97434.03
2022-10-13T07:49:05.675Z,97432.81
2022-10-13T07:50:07.788Z,97429.59
2022-10-13T07:51:11.739Z,97434.59
2022-10-13T07:52:13.573Z,97429.75
2022-10-13T07:53:15.380Z,97427.50
2022-10-13T07:54:22.605Z,97431.31
2022-10-13T07:55:28.333Z,97428.06
2022-10-13T07:56:30.185Z,97427.66
2022-10-13T07:57:32.025Z,97428.66
2022-10-13T07:58:34.822Z,97420.53
2022-10-13T07:59:36.793Z,97424.41
2022-10-13T08:00:38.505Z,97419.59
2022-10-13T08:01:41.393Z,97423.00
2022-10-13T08:02:43.236Z,97425.59
2022-10-13T08:03:49.806Z,97416.47
2022-10-13T08:04:52.641Z,97414.44
2022-10-13T08:05:54.951Z,97415.66
2022-10-13T08:06:57.043Z,97411.38
2022-10-13T08:07:58.832Z,97408.91
2022-10-13T08:09:00.900Z,97409.91
2022-10-13T08:10:02.773Z,97415.50
2022-10-13T08:11:14.669Z,97415.91
2022-10-13T08:12:18.798Z,97409.41
2022-10-13T08:13:20.949Z,97411.63
2022-10-13T08:14:22.773Z,97413.00
2022-10-13T08:15:24.573Z,97415.84
2022-10-13T08:16:26.908Z,97417.28
2022-10-13T08:17:28.809Z,97413.47
2022-10-13T08:18:30.622Z,97416.28
2022-10-13T08:19:32.769Z,97420.09
2022-10-13T08:20:41.376Z,97422.31
2022-10-13T08:22:01.782Z,97406.47
2022-10-13T08:23:03.795Z,97415.94
2022-10-13T08:24:11.224Z,97409.25
2022-10-13T08:25:13.097Z,97410.19
2022-10-13T08:26:26.226Z,97407.94
2022-10-13T08:27:47.632Z,97408.13
2022-10-13T08:29:09.484Z,97413.56
2022-10-13T08:30:12.990Z,97408.69
2022-10-13T08:31:15.135Z,97413.09
2022-10-13T08:32:17.533Z,97405.34
2022-10-13T08:33:20.084Z,97399.22
2022-10-13T08:34:24.931Z,97401.44
2022-10-13T08:35:29.166Z,97402.00
2022-10-13T08:36:33.226Z,97402.38
2022-10-13T08:37:35.207Z,97400.72
2022-10-13T08:38:36.964Z,97405.53
2022-10-13T08:39:38.836Z,97402.22
2022-10-13T08:40:40.845Z,97398.13
2022-10-13T08:41:46.653Z,97394.72
2022-10-13T08:42:48.433Z,97391.28
2022-10-13T08:44:39.505Z,97388.78
2022-10-13T08:45:42.690Z,97395.00
2022-10-13T08:46:54.242Z,97385.44
2022-10-13T08:48:00.452Z,97388.44
2022-10-13T08:49:02.370Z,97389.03
2022-10-13T08:50:23.602Z,97382.97
2022-10-13T08:51:25.467Z,97375.66
2022-10-13T08:52:28.947Z,97379.66
2022-10-13T08:53:41.299Z,97374.53
2022-10-13T08:54:43.180Z,97376.16
2022-10-13T08:55:47.770Z,97378.56
2022-10-13T08:56:51.524Z,97376.28
2022-10-13T08:57:53.581Z,97377.78
2022-10-13T08:58:56.930Z,97375.38
2022-10-13T08:59:58.836Z,97371.28
2022-10-13T09:01:09.603Z,97374.09
2022-10-13T09:02:13.783Z,97364.50
2022-10-13T09:03:26.078Z,97372.75
2022-10-13T09:04:30.299Z,97373.91
2022-10-13T09:05:38.109Z,97370.59
2022-10-13T09:06:45.778Z,97367.28
2022-10-13T09:07:47.607Z,97370.06
2022-10-13T09:08:52.983Z,97362.28
2022-10-13T09:09:55.614Z,97372.38
2022-10-13T09:10:57.406Z,97371.34
2022-10-13T09:11:59.788Z,97371.91
2022-10-13T09:13:01.730Z,97365.72
2022-10-13T09:14:04.997Z,97365.66
2022-10-13T09:15:11.310Z,97365.53
2022-10-13T09:16:13.122Z,97363.91
2022-10-13T09:17:17.638Z,97363.69
2022-10-13T09:18:19.503Z,97367.25
2022-10-13T09:19:23.712Z,97367.84
2022-10-13T09:20:28.241Z,97358.34
2022-10-13T09:21:30.526Z,97369.09
2022-10-13T09:22:39.567Z,97368.28
2022-10-13T09:23:42.127Z,97362.34
2022-10-13T09:24:44.142Z,97369.13
2022-10-13T09:25:50.276Z,97365.56
2022-10-13T09:27:03.247Z,97372.78
2022-10-13T09:28:10.357Z,97363.38
2022-10-13T09:29:16.214Z,97370.59
2022-10-13T09:30:25.676Z,97377.84
2022-10-13T09:31:28.981Z,97362.72
2022-10-13T09:32:35.648Z,97363.28
2022-10-13T09:33:37.981Z,97363.88
2022-10-13T09:34:39.722Z,97365.81
2022-10-13T09:35:42.933Z,97364.31
2022-10-13T09:37:01.590Z,97360.75
2022-10-13T09:38:04.411Z,97364.88
2022-10-13T09:39:08.238Z,97356.03
2022-10-13T09:40:15.207Z,97361.97
2022-10-13T09:41:20.189Z,97365.41
2022-10-13T09:42:32.135Z,97364.72
2022-10-13T09:43:35.553Z,97360.91
2022-10-13T09:44:37.436Z,97360.69
2022-10-13T09:45:42.948Z,97350.56
2022-10-13T09:46:50.642Z,97352.03
2022-10-13T09:47:55.437Z,97352.13
2022-10-13T09:48:59.022Z,97360.34
2022-10-13T09:50:06.662Z,97351.66
2022-10-13T09:51:31.220Z,97349.41
2022-10-13T09:52:33.102Z,97350.00
2022-10-13T09:53:40.227Z,97347.69
2022-10-13T09:54:42.013Z,97349.06
2022-10-13T09:55:46.949Z,97348.16
2022-10-13T09:56:52.500Z,97352.47
2022-10-13T09:57:56.199Z,97351.66
2022-10-13T09:58:57.933Z,97349.34
2022-10-13T10:00:03.982Z,97349.44
2022-10-13T10:01:06.317Z,97344.72
2022-10-13T10:02:37.637Z,97351.13
2022-10-13T10:03:39.513Z,97348.00
2022-10-13T10:04:43.497Z,97352.09
2022-10-13T10:05:59.906Z,97350.59
2022-10-13T10:07:09.998Z,97346.66
2022-10-13T10:08:15.208Z,97349.94
2022-10-13T10:09:33.339Z,97351.84
2022-10-13T10:10:36.593Z,97345.38
2022-10-13T10:11:42.925Z,97349.63
2022-10-13T10:12:45.268Z,97347.56
2022-10-13T10:13:47.176Z,97345.69
2022-10-13T10:14:50.444Z,97349.94
2022-10-13T10:16:09.856Z,97352.34
2022-10-13T10:17:18.201Z,97344.97
2022-10-13T10:18:33.048Z,97346.59
2022-10-13T10:19:55.011Z,97342.41
2022-10-13T10:21:07.104Z,97349.38
2022-10-13T10:22:16.102Z,97342.56
2022-10-13T10:23:35.115Z,97343.69
2022-10-13T10:24:43.043Z,97343.50
2022-10-13T10:25:47.244Z,97347.03
2022-10-13T10:26:55.759Z,97341.56
2022-10-13T10:28:13.100Z,97337.72
2022-10-13T10:29:19.684Z,97338.75
2022-10-13T10:30:21.954Z,97335.31
2022-10-13T10:31:30.837Z,97340.91
2022-10-13T10:32:32.628Z,97338.34
2022-10-13T10:33:40.578Z,97340.25
2022-10-13T10:34:42.358Z,97336.38
2022-10-13T10:36:03.466Z,97341.41
2022-10-13T10:37:25.428Z,97333.00
2022-10-13T10:38:35.260Z,97341.25
2022-10-13T10:39:39.000Z,97336.00
2022-10-13T10:40:49.511Z,97339.19
2022-10-13T10:42:01.082Z,97333.91
2022-10-13T10:43:15.164Z,97330.94
2022-10-13T10:44:37.333Z,97336.78
2022-10-13T10:45:40.034Z,97335.19
2022-10-13T10:47:03.005Z,97332.31
2022-10-13T10:48:25.151Z,97319.88
2022-10-13T10:49:26.983Z,97316.78
2022-10-13T10:50:30.085Z,97320.78
2022-10-13T10:51:33.469Z,97320.78
2022-10-13T10:52:41.388Z,97315.00
2022-10-13T10:53:43.807Z,97307.38
2022-10-13T10:54:51.431Z,97306.84
2022-10-13T10:55:55.565Z,97307.72
2022-10-13T10:57:03.804Z,97309.34
2022-10-13T10:58:32.120Z,97310.94
2022-10-13T10:59:36.921Z,97298.59
2022-10-13T11:00:45.904Z,97295.69
2022-10-13T11:02:02.973Z,97295.94
2022-10-13T11:03:19.832Z,97290.03
2022-10-13T11:04:24.818Z,97293.47
2022-10-13T11:05:31.318Z,97279.72
2022-10-13T11:06:37.350Z,97288.81
2022-10-13T11:07:39.093Z,97286.19
2022-10-13T11:08:42.426Z,97279.06
2022-10-13T11:09:44.184Z,97278.31
2022-10-13T11:10:46.101Z,97278.31
2022-10-13T11:11:47.912Z,97276.69
2022-10-13T11:12:52.559Z,97276.16
2022-10-13T11:13:54.580Z,97273.31
2022-10-13T11:15:02.446Z,97272.00
2022-10-13T11:16:24.175Z,97275.19
2022-10-13T11:17:29.779Z,97274.06
2022-10-13T11:18:50.111Z,97269.78
2022-10-13T11:19:52.109Z,97267.66
2022-10-13T11:20:59.567Z,97260.00
2022-10-13T11:22:01.318Z,97262.16
2022-10-13T11:23:03.135Z,97269.59
2022-10-13T11:24:05.014Z,97255.88
2022-10-13T11:25:25.507Z,97260.91
2022-10-13T11:26:29.378Z,97258.28
2022-10-13T11:27:39.564Z,97261.72
2022-10-13T11:28:41.444Z,97250.50
2022-10-13T11:29:46.962Z,97259.44
2022-10-13T11:30:50.604Z,97256.78
2022-10-13T11:31:54.881Z,97247.78
2022-10-13T11:32:56.845Z,97254.22
2022-10-13T11:34:00.322Z,97242.63
2022-10-13T11:35:14.422Z,97242.16
2022-10-13T11:36:31.858Z,97238.53
2022-10-13T11:37:43.940Z,97243.91
2022-10-13T11:38:54.770Z,97242.91
2022-10-13T11:40:16.851Z,97236.09
2022-10-13T11:41:32.425Z,97235.88
2022-10-13T11:42:45.171Z,97231.34
2022-10-13T11:43:46.941Z,97232.13
2022-10-13T11:45:11.705Z,97227.38
2022-10-13T11:46:25.077Z,97220.81
2022-10-13T11:47:45.441Z,97218.72
2022-10-13T11:49:02.231Z,97217.69
2022-10-13T11:50:13.000Z,97210.28
2022-10-13T11:51:33.700Z,97210.28
2022-10-13T11:52:41.528Z,97211.94
2022-10-13T11:54:02.185Z,97204.53
2022-10-13T11:55:13.059Z,97200.03
2022-10-13T11:56:20.040Z,97205.13
2022-10-13T11:57:23.617Z,97204.03
2022-10-13T11:58:26.776Z,97203.50
2022-10-13T11:59:28.693Z,97200.34
2022-10-13T12:00:30.482Z,97203.25
2022-10-13T12:01:32.433Z,97205.91
2022-10-13T12:02:34.298Z,97199.03
2022-10-13T12:03:40.375Z,97200.34
2022-10-13T12:04:46.480Z,97196.91
2022-10-13T12:05:49.983Z,97201.72
2022-10-13T12:06:57.555Z,97197.22
2022-10-13T12:08:03.255Z,97188.75
2022-10-13T12:09:07.683Z,97191.94
2022-10-13T12:10:17.044Z,97178.94
2022-10-13T12:11:26.091Z,97184.50
2022-10-13T12:12:27.959Z,97188.00
2022-10-13T12:13:30.822Z,97194.63
2022-10-13T12:14:40.268Z,97181.63
2022-10-13T12:15:43.752Z,97178.72
2022-10-13T12:16:58.934Z,97174.44
2022-10-13T12:18:00.981Z,97183.44
2022-10-13T12:19:19.273Z,97172.59
2022-10-13T12:20:22.397Z,97172.59
2022-10-13T12:21:25.116Z,97174.44
2022-10-13T12:22:27.412Z,97176.03
2022-10-13T12:23:30.332Z,97172.59
2022-10-13T12:24:32.244Z,97172.03
2022-10-13T12:25:34.158Z,97167.00
2022-10-13T12:26:35.999Z,97168.59
2022-10-13T12:27:48.896Z,97168.06
2022-10-13T12:28:56.001Z,97165.59
2022-10-13T12:29:57.844Z,97165.06
2022-10-13T12:31:00.326Z,97164.81
2022-10-13T12:32:02.118Z,97160.84
2022-10-13T12:33:04.859Z,97161.94
2022-10-13T12:34:28.255Z,97161.94
2022-10-13T12:35:33.632Z,97160.59
2022-10-13T12:36:35.830Z,97167.47
2022-10-13T12:37:37.667Z,97169.06
2022-10-13T12:38:49.035Z,97166.97
2022-10-13T12:39:51.104Z,97162.44
2022-10-13T12:40:54.173Z,97166.47
2022-10-13T12:41:56.469Z,97170.97